createdAt,value
2023-05-21T00:02:04.098Z,101380.63
2023-05-21T00:04:35.409Z,101385.94
2023-05-21T00:07:08.603Z,101384.19
2023-05-21T00:09:39.973Z,101387.75
2023-05-21T00:12:11.316Z,101379.81
2023-05-21T00:14:42.746Z,101379.00
2023-05-21T00:17:14.055Z,101377.31
2023-05-21T00:19:45.693Z,101372.97
2023-05-21T00:22:17.301Z,101365.94
2023-05-21T00:24:48.610Z,101368.66
2023-05-21T00:27:19.934Z,101350.25
2023-05-21T00:29:51.482Z,101345.88
2023-05-21T00:32:22.809Z,101351.28
2023-05-21T00:34:54.213Z,101361.91
2023-05-21T00:37:26.026Z,101345.28
2023-05-21T00:39:58.366Z,101350.53
2023-05-21T00:42:30.611Z,101349.69
2023-05-21T00:45:03.792Z,101355.03
2023-05-21T00:47:35.923Z,101326.81
2023-05-21T00:50:08.683Z,101352.22
2023-05-21T00:52:43.085Z,101336.34
2023-05-21T00:55:15.076Z,101353.94
2023-05-21T00:57:46.605Z,101348.63
2023-05-21T01:00:18.191Z,101340.75
2023-05-21T01:02:50.525Z,101348.63
2023-05-21T01:05:22.210Z,101347.75
2023-05-21T01:07:54.018Z,101341.53
2023-05-21T01:10:26.590Z,101324.81
2023-05-21T01:12:58.404Z,101321.38
2023-05-21T01:15:30.018Z,101330.16
2023-05-21T01:18:01.623Z,101332.00
2023-05-21T01:20:33.302Z,101327.59
2023-05-21T01:23:05.396Z,101332.97
2023-05-21T01:25:37.185Z,101332.13
2023-05-21T01:28:08.996Z,101325.97
2023-05-21T01:30:41.628Z,101328.66
2023-05-21T01:33:18.257Z,101322.47
2023-05-21T01:36:04.263Z,101318.91
2023-05-21T01:38:39.379Z,101316.25
2023-05-21T01:41:12.433Z,101323.34
2023-05-21T01:43:46.174Z,101308.28
2023-05-21T01:46:21.434Z,101301.34
2023-05-21T01:48:55.762Z,101309.31
2023-05-21T01:51:27.809Z,101304.94
2023-05-21T01:53:59.150Z,101314.56
2023-05-21T01:56:33.649Z,101319.84
2023-05-21T01:59:05.844Z,101299.59
2023-05-21T02:01:37.409Z,101320.72
2023-05-21T02:04:09.022Z,101319.81
2023-05-21T02:06:41.684Z,101310.03
2023-05-21T02:09:12.994Z,101310.94
2023-05-21T02:11:44.361Z,101291.53
2023-05-21T02:14:16.724Z,101301.22
2023-05-21T02:16:48.038Z,101300.38
2023-05-21T02:19:19.445Z,101296.81
2023-05-21T02:21:50.827Z,101296.81
2023-05-21T02:24:24.304Z,101292.38
2023-05-21T02:26:55.685Z,101290.59
2023-05-21T02:29:27.021Z,101297.72
2023-05-21T02:31:58.829Z,101293.28
2023-05-21T02:34:32.317Z,101282.75
2023-05-21T02:37:03.725Z,101289.75
2023-05-21T02:39:35.104Z,101287.97
2023-05-21T02:42:06.438Z,101263.34
2023-05-21T02:44:37.745Z,101286.19
2023-05-21T02:47:10.253Z,101279.94
2023-05-21T02:49:41.586Z,101283.50
2023-05-21T02:52:13.342Z,101247.38
2023-05-21T02:54:45.479Z,101276.44
2023-05-21T02:57:18.289Z,101284.44
2023-05-21T02:59:49.643Z,101261.50
2023-05-21T03:02:21.023Z,101277.38
2023-05-21T03:04:52.471Z,101271.22
2023-05-21T03:07:24.313Z,101270.38
2023-05-21T03:09:55.764Z,101273.09
2023-05-21T03:12:27.131Z,101263.41
2023-05-21T03:14:59.677Z,101271.41
2023-05-21T03:17:31.101Z,101253.06
2023-05-21T03:20:05.072Z,101272.44
2023-05-21T03:22:37.486Z,101271.63
2023-05-21T03:25:09.841Z,101258.44
2023-05-21T03:27:41.206Z,101279.66
2023-05-21T03:30:13.190Z,101275.22
2023-05-21T03:32:45.099Z,101274.34
2023-05-21T03:35:16.746Z,101250.44
2023-05-21T03:37:48.191Z,101238.97
2023-05-21T03:40:19.524Z,101266.28
2023-05-21T03:42:50.828Z,101257.44
2023-05-21T03:45:22.190Z,101266.22
2023-05-21T03:47:53.682Z,101259.91
2023-05-21T03:50:25.009Z,101252.88
2023-05-21T03:52:56.412Z,101263.34
2023-05-21T03:55:27.723Z,101264.16
2023-05-21T03:57:59.034Z,101263.22
2023-05-21T04:00:32.472Z,101264.94
2023-05-21T04:03:04.368Z,101240.25
2023-05-21T04:05:35.903Z,101264.84
2023-05-21T04:08:07.431Z,101266.53
2023-05-21T04:10:38.756Z,101226.91
2023-05-21T04:13:10.139Z,101244.31
2023-05-21T04:15:43.553Z,101259.16
2023-05-21T04:18:17.550Z,101249.34
2023-05-21T04:20:50.027Z,101251.94
2023-05-21T04:23:23.592Z,101244.81
2023-05-21T04:25:55.207Z,101250.00
2023-05-21T04:28:28.717Z,101245.53
2023-05-21T04:31:00.233Z,101263.91
2023-05-21T04:33:31.582Z,101263.84
2023-05-21T04:36:03.835Z,101264.69
2023-05-21T04:38:36.928Z,101244.41
2023-05-21T04:41:10.765Z,101261.88
2023-05-21T04:43:43.941Z,101257.28
2023-05-21T04:46:15.324Z,101259.88
2023-05-21T04:48:46.800Z,101260.69
2023-05-21T04:51:18.205Z,101258.91
2023-05-21T04:53:49.862Z,101260.63
2023-05-21T04:56:26.632Z,101249.13
2023-05-21T04:58:58.785Z,101265.09
2023-05-21T05:01:32.302Z,101258.75
2023-05-21T05:04:04.320Z,101263.03
2023-05-21T05:06:35.995Z,101260.13
2023-05-21T05:09:07.340Z,101261.69
2023-05-21T05:11:38.845Z,101256.06
2023-05-21T05:14:10.379Z,101254.09
2023-05-21T05:16:42.787Z,101242.50
2023-05-21T05:19:14.274Z,101251.09
2023-05-21T05:21:46.387Z,101245.47
2023-05-21T05:24:17.715Z,101247.75
2023-05-21T05:26:49.057Z,101240.53
2023-05-21T05:29:20.451Z,101254.44
2023-05-21T05:31:51.750Z,101253.38
2023-05-21T05:34:23.062Z,101232.94
2023-05-21T05:36:54.370Z,101257.06
2023-05-21T05:39:25.755Z,101248.94
2023-05-21T05:41:57.124Z,101254.13
2023-05-21T05:44:28.568Z,101254.84
2023-05-21T05:46:59.927Z,101244.88
2023-05-21T05:49:31.544Z,101220.91
2023-05-21T05:52:03.361Z,101241.91
2023-05-21T05:54:34.685Z,101246.19
2023-05-21T05:57:06.204Z,101232.00
2023-05-21T05:59:37.635Z,101242.97
2023-05-21T06:02:09.126Z,101227.63
2023-05-21T06:04:40.565Z,101253.22
2023-05-21T06:07:11.909Z,101250.75
2023-05-21T06:09:43.253Z,101244.22
2023-05-21T06:12:15.963Z,101243.59
2023-05-21T06:14:48.986Z,101238.72
2023-05-21T06:17:20.350Z,101239.38
2023-05-21T06:19:51.713Z,101255.94
2023-05-21T06:22:25.404Z,101238.31
2023-05-21T06:24:57.031Z,101245.88
2023-05-21T06:27:28.354Z,101249.38
2023-05-21T06:29:59.743Z,101241.28
2023-05-21T06:32:31.169Z,101247.09
2023-05-21T06:35:02.640Z,101245.47
2023-05-21T06:37:34.018Z,101240.94
2023-05-21T06:40:06.477Z,101244.56
2023-05-21T06:42:37.821Z,101230.84
2023-05-21T06:45:09.565Z,101248.13
2023-05-21T06:47:41.144Z,101249.53
2023-05-21T06:50:12.566Z,101244.34
2023-05-21T06:52:44.021Z,101245.38
2023-05-21T06:55:15.434Z,101245.50
2023-05-21T06:57:46.865Z,101234.16
2023-05-21T07:00:18.550Z,101242.13
2023-05-21T07:02:50.001Z,101238.31
2023-05-21T07:05:21.625Z,101228.03
2023-05-21T07:07:53.071Z,101235.19
2023-05-21T07:10:24.467Z,101237.44
2023-05-21T07:12:56.860Z,101202.59
2023-05-21T07:15:28.251Z,101225.59
2023-05-21T07:17:59.848Z,101226.94
2023-05-21T07:20:31.174Z,101224.09
2023-05-21T07:23:02.647Z,101210.16
2023-05-21T07:25:34.645Z,101199.91
2023-05-21T07:28:06.771Z,101215.69
2023-05-21T07:30:38.293Z,101221.47
2023-05-21T07:33:09.731Z,101221.97
2023-05-21T07:35:41.402Z,101211.00
2023-05-21T07:38:13.169Z,101225.25
2023-05-21T07:40:44.698Z,101227.13
2023-05-21T07:43:16.051Z,101221.59
2023-05-21T07:45:47.715Z,101196.72
2023-05-21T07:48:19.110Z,101228.84
2023-05-21T07:50:52.448Z,101219.69
2023-05-21T07:53:23.940Z,101205.34
2023-05-21T07:55:55.437Z,101223.69
2023-05-21T07:58:26.928Z,101213.50
2023-05-21T08:00:58.417Z,101217.03
2023-05-21T08:03:30.882Z,101214.84
2023-05-21T08:06:02.545Z,101211.53
2023-05-21T08:08:33.868Z,101210.13
2023-05-21T08:11:05.342Z,101195.13
2023-05-21T08:13:36.652Z,101189.50
2023-05-21T08:16:08.093Z,101204.31
2023-05-21T08:18:39.564Z,101207.00
2023-05-21T08:21:11.753Z,101211.06
2023-05-21T08:23:44.037Z,101208.19
2023-05-21T08:26:16.470Z,101213.94
2023-05-21T08:28:48.119Z,101203.09
2023-05-21T08:31:19.693Z,101200.94
2023-05-21T08:33:52.558Z,101194.78
2023-05-21T08:36:24.711Z,101200.50
2023-05-21T08:38:56.021Z,101202.22
2023-05-21T08:41:30.564Z,101202.75
2023-05-21T08:44:02.854Z,101199.59
2023-05-21T08:46:35.611Z,101187.03
2023-05-21T08:49:12.288Z,101173.03
2023-05-21T08:51:44.952Z,101191.63
2023-05-21T08:54:16.389Z,101180.41
2023-05-21T08:56:49.416Z,101197.16
2023-05-21T08:59:21.512Z,101179.50
2023-05-21T09:01:53.849Z,101178.03
2023-05-21T09:04:26.216Z,101196.34
2023-05-21T09:06:59.234Z,101194.69
2023-05-21T09:09:38.729Z,101190.19
2023-05-21T09:12:10.163Z,101197.25
2023-05-21T09:14:42.952Z,101193.38
2023-05-21T09:17:15.252Z,101201.56
2023-05-21T09:20:26.537Z,101199.41
2023-05-21T09:23:03.708Z,101191.53
2023-05-21T09:25:38.880Z,101197.81
2023-05-21T09:28:15.373Z,101190.72
2023-05-21T09:30:54.141Z,101188.16
2023-05-21T09:33:27.323Z,101204.84
2023-05-21T09:35:58.805Z,101190.28
2023-05-21T09:38:33.507Z,101197.50
2023-05-21T09:41:06.463Z,101195.78
2023-05-21T09:43:37.930Z,101204.34
2023-05-21T09:46:09.669Z,101199.13
2023-05-21T09:48:42.553Z,101186.31
2023-05-21T09:51:18.167Z,101192.13
2023-05-21T09:53:57.871Z,101185.16
2023-05-21T09:56:31.975Z,101179.53
2023-05-21T09:59:06.813Z,101180.84
2023-05-21T10:01:38.622Z,101187.72
2023-05-21T10:04:10.471Z,101172.56
2023-05-21T10:06:47.893Z,101182.91
2023-05-21T10:09:20.697Z,101180.06
2023-05-21T10:11:54.600Z,101174.84
2023-05-21T10:14:27.752Z,101169.31
2023-05-21T10:17:00.589Z,101165.06
2023-05-21T10:19:34.039Z,101162.72
2023-05-21T10:22:06.135Z,101161.31
2023-05-21T10:24:38.044Z,101150.03
2023-05-21T10:27:10.296Z,101145.81
2023-05-21T10:29:44.375Z,101154.59
2023-05-21T10:32:16.872Z,101148.72
2023-05-21T10:34:48.525Z,101152.44
2023-05-21T10:37:23.075Z,101140.25
2023-05-21T10:39:55.658Z,101139.31
2023-05-21T10:42:49.631Z,101146.22
2023-05-21T10:45:33.869Z,101137.88
2023-05-21T10:48:39.313Z,101113.19
2023-05-21T10:51:18.401Z,101143.19
2023-05-21T10:54:09.123Z,101130.16
2023-05-21T10:57:14.769Z,101107.88
2023-05-21T10:59:47.363Z,101127.34
2023-05-21T11:02:20.614Z,101126.47
2023-05-21T11:04:59.793Z,101121.47
2023-05-21T11:07:52.234Z,101125.56
2023-05-21T11:10:39.253Z,101125.41
2023-05-21T11:13:13.447Z,101129.13
2023-05-21T11:16:06.675Z,101111.44
2023-05-21T11:18:38.376Z,101116.41
2023-05-21T11:21:15.306Z,101118.25
2023-05-21T11:23:59.374Z,101105.25
2023-05-21T11:26:52.180Z,101109.81
2023-05-21T11:29:33.454Z,101109.06
2023-05-21T11:32:05.795Z,101107.56
2023-05-21T11:34:39.621Z,101104.72
2023-05-21T11:37:27.830Z,101101.53
2023-05-21T11:40:17.588Z,101081.44
2023-05-21T11:42:51.810Z,101098.53
2023-05-21T11:45:28.735Z,101073.38
2023-05-21T11:48:00.264Z,101093.69
2023-05-21T11:50:33.898Z,101080.50
2023-05-21T11:53:07.520Z,101080.81
2023-05-21T11:55:43.446Z,101090.03
2023-05-21T11:58:16.498Z,101092.06
2023-05-21T12:00:50.949Z,101077.72
2023-05-21T12:03:26.647Z,101080.25
2023-05-21T12:06:05.925Z,101089.13
2023-05-21T12:08:38.282Z,101102.31
2023-05-21T12:11:09.785Z,101096.66
2023-05-21T12:13:41.554Z,101087.44
2023-05-21T12:16:13.028Z,101089.38
2023-05-21T12:18:44.776Z,101081.66
2023-05-21T12:21:16.854Z,101084.72
2023-05-21T12:23:48.187Z,101086.72
2023-05-21T12:26:19.808Z,101077.84
2023-05-21T12:29:00.395Z,101080.97
2023-05-21T12:31:32.816Z,101082.78
2023-05-21T12:34:04.476Z,101076.94
2023-05-21T12:36:38.069Z,101084.22
2023-05-21T12:39:11.188Z,101088.81
2023-05-21T12:41:43.708Z,101090.25
2023-05-21T12:44:15.181Z,101074.72
2023-05-21T12:46:46.600Z,101075.78
2023-05-21T12:49:37.057Z,101074.09
2023-05-21T12:52:10.833Z,101071.91
2023-05-21T12:54:45.609Z,101071.22
2023-05-21T12:57:19.105Z,101068.31
2023-05-21T12:59:58.338Z,101060.88
2023-05-21T13:02:35.382Z,101058.16
2023-05-21T13:05:17.532Z,101048.78
2023-05-21T13:07:51.485Z,101060.69
2023-05-21T13:10:22.921Z,101048.94
2023-05-21T13:12:54.271Z,101043.38
2023-05-21T13:15:25.680Z,101048.63
2023-05-21T13:17:57.707Z,101037.50
2023-05-21T13:20:29.405Z,101049.78
2023-05-21T13:23:02.248Z,101041.59
2023-05-21T13:25:35.352Z,101045.19
2023-05-21T13:28:08.637Z,101043.88
2023-05-21T13:30:40.274Z,101035.09
2023-05-21T13:33:12.211Z,101050.19
2023-05-21T13:35:45.607Z,101045.13
2023-05-21T13:38:17.463Z,101039.63
2023-05-21T13:40:49.708Z,101039.69
2023-05-21T13:43:21.184Z,101024.56
2023-05-21T13:45:52.548Z,101048.63
2023-05-21T13:48:24.132Z,101016.25
2023-05-21T13:50:55.617Z,101039.31
2023-05-21T13:53:27.184Z,101029.34
2023-05-21T13:55:58.599Z,101036.41
2023-05-21T13:58:34.427Z,101026.63
2023-05-21T14:01:07.159Z,101032.47
2023-05-21T14:03:38.653Z,101026.72
2023-05-21T14:06:10.194Z,101020.09
2023-05-21T14:08:42.004Z,101009.16
2023-05-21T14:11:13.347Z,101018.66
2023-05-21T14:13:44.797Z,101021.97
2023-05-21T14:16:16.271Z,101023.25
2023-05-21T14:18:47.687Z,101019.06
2023-05-21T14:21:19.553Z,101013.31
2023-05-21T14:23:51.089Z,101014.03
2023-05-21T14:26:22.425Z,101019.97
2023-05-21T14:28:53.733Z,101013.84
2023-05-21T14:31:25.399Z,101000.88
2023-05-21T14:33:56.892Z,101008.19
2023-05-21T14:36:28.747Z,101010.34
2023-05-21T14:39:00.281Z,101010.25
2023-05-21T14:41:31.849Z,100993.09
2023-05-21T14:44:03.346Z,101019.88
2023-05-21T14:46:34.814Z,101019.72
2023-05-21T14:49:06.255Z,101018.28
2023-05-21T14:51:37.673Z,101004.75
2023-05-21T14:54:09.011Z,101008.91
2023-05-21T14:56:40.341Z,101017.56
2023-05-21T14:59:12.741Z,101013.63
2023-05-21T15:01:44.217Z,101019.53
2023-05-21T15:04:15.694Z,101019.69
2023-05-21T15:06:47.070Z,101003.28
2023-05-21T15:09:18.406Z,101019.44
2023-05-21T15:11:52.454Z,101017.75
2023-05-21T15:14:23.890Z,101011.59
2023-05-21T15:16:55.252Z,101012.91
2023-05-21T15:19:26.732Z,101018.06
2023-05-21T15:21:58.187Z,101013.13
2023-05-21T15:24:29.584Z,101006.47
2023-05-21T15:27:00.917Z,101007.75
2023-05-21T15:29:32.400Z,101001.50
2023-05-21T15:32:05.205Z,101001.84
2023-05-21T15:34:36.587Z,100999.66
2023-05-21T15:37:08.015Z,100986.34
2023-05-21T15:39:39.357Z,100991.28
2023-05-21T15:42:11.614Z,100984.63
2023-05-21T15:44:42.992Z,101001.59
2023-05-21T15:47:14.386Z,100984.75
2023-05-21T15:49:45.724Z,100990.13
2023-05-21T15:52:17.605Z,100970.00
2023-05-21T15:54:48.952Z,100976.16
2023-05-21T15:57:20.825Z,100986.22
2023-05-21T15:59:52.638Z,100967.59
2023-05-21T16:02:24.035Z,100979.50
2023-05-21T16:04:55.527Z,100974.59
2023-05-21T16:07:26.848Z,100968.56
2023-05-21T16:09:58.221Z,100962.41
2023-05-21T16:12:29.762Z,100971.34
2023-05-21T16:15:01.127Z,100947.38
2023-05-21T16:17:32.697Z,100957.75
2023-05-21T16:20:04.471Z,100961.69
2023-05-21T16:22:35.924Z,100964.69
2023-05-21T16:25:07.815Z,100953.50
2023-05-21T16:27:39.252Z,100963.28
2023-05-21T16:30:11.993Z,100949.19
2023-05-21T16:32:43.535Z,100950.56
2023-05-21T16:35:14.961Z,100927.53
2023-05-21T16:37:46.431Z,100948.09
2023-05-21T16:40:17.793Z,100945.16
2023-05-21T16:42:49.576Z,100925.63
2023-05-21T16:45:21.473Z,100950.69
2023-05-21T16:47:53.080Z,100948.69
2023-05-21T16:50:24.594Z,100925.88
2023-05-21T16:52:55.946Z,100936.94
2023-05-21T16:55:27.876Z,100923.59
2023-05-21T16:58:01.157Z,100930.72
2023-05-21T17:00:33.984Z,100937.47
2023-05-21T17:03:05.580Z,100931.25
2023-05-21T17:05:37.214Z,100926.25
2023-05-21T17:08:08.938Z,100919.34
2023-05-21T17:10:40.604Z,100938.09
2023-05-21T17:13:21.661Z,100932.41
2023-05-21T17:15:54.637Z,100938.47
2023-05-21T17:18:26.171Z,100936.50
2023-05-21T17:20:58.944Z,100927.53
2023-05-21T17:23:30.443Z,100939.94
2023-05-21T17:26:02.134Z,100938.91
2023-05-21T17:28:33.520Z,100948.19
2023-05-21T17:31:04.950Z,100950.69
2023-05-21T17:33:37.411Z,100952.41
2023-05-21T17:36:08.834Z,100940.66
2023-05-21T17:38:40.291Z,100946.06
2023-05-21T17:41:11.721Z,100957.19
2023-05-21T17:43:43.051Z,100949.16
2023-05-21T17:46:17.527Z,100963.06
2023-05-21T17:48:48.899Z,100922.44
2023-05-21T17:51:20.345Z,100954.09
2023-05-21T17:53:51.724Z,100957.34
2023-05-21T17:56:23.154Z,100935.53
2023-05-21T17:58:54.872Z,100953.34
2023-05-21T18:01:26.382Z,100946.41
2023-05-21T18:03:57.796Z,100960.28
2023-05-21T18:06:29.817Z,100948.03
2023-05-21T18:09:01.171Z,100959.53
2023-05-21T18:11:32.515Z,100956.72
2023-05-21T18:14:04.206Z,100960.63
2023-05-21T18:16:35.772Z,100956.16
2023-05-21T18:19:07.315Z,100961.69
2023-05-21T18:21:38.842Z,100961.78
2023-05-21T18:24:10.202Z,100956.59
2023-05-21T18:26:43.245Z,100962.22
2023-05-21T18:29:14.931Z,100962.22
2023-05-21T18:31:46.492Z,100949.28
2023-05-21T18:34:18.096Z,100951.03
2023-05-21T18:36:49.474Z,100957.31
2023-05-21T18:39:24.466Z,100953.94
2023-05-21T18:42:11.385Z,100959.56
2023-05-21T18:44:46.349Z,100951.16
2023-05-21T18:47:17.749Z,100963.84
2023-05-21T18:49:49.061Z,100964.38
2023-05-21T18:52:20.379Z,100955.78
2023-05-21T18:54:51.745Z,100958.03
2023-05-21T18:57:23.153Z,100955.72
2023-05-21T18:59:54.465Z,100948.13
2023-05-21T19:02:26.937Z,100931.81
2023-05-21T19:04:59.490Z,100951.72
2023-05-21T19:07:30.928Z,100953.88
2023-05-21T19:10:03.086Z,100947.22
2023-05-21T19:12:36.177Z,100950.16
2023-05-21T19:15:08.335Z,100946.88
2023-05-21T19:17:39.877Z,100938.75
2023-05-21T19:20:22.394Z,100951.13
2023-05-21T19:22:54.831Z,100952.38
2023-05-21T19:25:26.354Z,100946.88
2023-05-21T19:27:57.946Z,100945.53
2023-05-21T19:30:29.401Z,100963.09
2023-05-21T19:33:00.751Z,100967.16
2023-05-21T19:35:32.160Z,100974.50
2023-05-21T19:38:05.504Z,100972.94
2023-05-21T19:40:37.262Z,100972.56
2023-05-21T19:43:28.227Z,100959.81
2023-05-21T19:46:05.239Z,100914.38
2023-05-21T19:48:46.734Z,100898.72
2023-05-21T19:51:26.434Z,100960.75
2023-05-21T19:53:58.022Z,100977.66
2023-05-21T19:56:29.355Z,100967.47
2023-05-21T19:59:00.759Z,100991.16
2023-05-21T20:01:35.354Z,100993.19
2023-05-21T20:04:06.875Z,100983.09
2023-05-21T20:06:38.832Z,100985.00
2023-05-21T20:09:13.089Z,101001.72
2023-05-21T20:11:44.744Z,101000.16
2023-05-21T20:14:16.182Z,100996.00
2023-05-21T20:16:48.380Z,101005.94
2023-05-21T20:19:22.726Z,100989.63
2023-05-21T20:21:54.294Z,101005.47
2023-05-21T20:24:25.969Z,100999.47
2023-05-21T20:26:57.655Z,101008.44
2023-05-21T20:29:29.560Z,100989.38
2023-05-21T20:32:01.145Z,101001.84
2023-05-21T20:34:33.093Z,101000.78
2023-05-21T20:37:05.186Z,101008.13
2023-05-21T20:39:37.215Z,100993.66
2023-05-21T20:42:10.641Z,101000.69
2023-05-21T20:44:42.087Z,100990.16
2023-05-21T20:47:13.745Z,101009.50
2023-05-21T20:49:45.590Z,101005.81
2023-05-21T20:52:17.338Z,100995.81
2023-05-21T20:54:48.925Z,100988.94
2023-05-21T20:57:24.001Z,100994.66
2023-05-21T20:59:56.132Z,100990.66
2023-05-21T21:02:28.471Z,100996.75
2023-05-21T21:05:00.008Z,101005.28
2023-05-21T21:07:32.403Z,100998.22
2023-05-21T21:10:04.454Z,100989.91
2023-05-21T21:12:35.769Z,100993.00
2023-05-21T21:15:07.994Z,101007.00
2023-05-21T21:17:39.480Z,100990.66
2023-05-21T21:20:12.713Z,101001.22
2023-05-21T21:22:45.015Z,101016.97
2023-05-21T21:25:16.748Z,101009.81
2023-05-21T21:27:48.105Z,101019.75
2023-05-21T21:30:19.410Z,101018.00
2023-05-21T21:32:50.888Z,101000.69
2023-05-21T21:35:22.205Z,101017.22
2023-05-21T21:37:53.536Z,101012.78
2023-05-21T21:40:24.994Z,101016.53
2023-05-21T21:42:56.454Z,101013.06
2023-05-21T21:45:27.855Z,101013.25
2023-05-21T21:47:59.198Z,101003.84
2023-05-21T21:50:30.626Z,101000.56
2023-05-21T21:53:03.634Z,101008.66
2023-05-21T21:55:35.094Z,100999.16
2023-05-21T21:58:06.978Z,100997.59
2023-05-21T22:00:38.801Z,100974.38
2023-05-21T22:03:13.692Z,100995.53
2023-05-21T22:05:46.156Z,101006.59
2023-05-21T22:08:17.717Z,100998.56
2023-05-21T22:10:49.051Z,100995.19
2023-05-21T22:13:20.523Z,101006.16
2023-05-21T22:15:51.856Z,100999.94
2023-05-21T22:18:38.801Z,100981.84
2023-05-21T22:21:13.902Z,100974.88
2023-05-21T22:23:45.428Z,100998.81
2023-05-21T22:26:16.861Z,100993.50
2023-05-21T22:28:48.342Z,100976.09
2023-05-21T22:31:19.971Z,100990.19
2023-05-21T22:33:51.375Z,100993.16
2023-05-21T22:36:22.678Z,100988.97
2023-05-21T22:38:54.215Z,100990.19
2023-05-21T22:41:25.905Z,100973.84
2023-05-21T22:43:57.302Z,101000.63
2023-05-21T22:46:28.696Z,100976.16
2023-05-21T22:49:00.143Z,100995.75
2023-05-21T22:51:34.403Z,100995.22
2023-05-21T22:54:06.088Z,100987.53
2023-05-21T22:56:37.509Z,100990.41
2023-05-21T22:59:08.820Z,100966.06
2023-05-21T23:01:40.269Z,100985.66
2023-05-21T23:04:11.672Z,100985.81
2023-05-21T23:06:42.991Z,100991.44
2023-05-21T23:09:14.449Z,100970.69
2023-05-21T23:11:46.078Z,100977.59
2023-05-21T23:14:17.422Z,100983.94
2023-05-21T23:16:48.800Z,100978.69
2023-05-21T23:19:21.153Z,100984.41
2023-05-21T23:21:52.734Z,100964.47
2023-05-21T23:24:24.184Z,100971.66
2023-05-21T23:27:01.526Z,100968.59
2023-05-21T23:29:32.889Z,100986.50
2023-05-21T23:32:05.142Z,100979.69
2023-05-21T23:34:36.638Z,100974.78
2023-05-21T23:37:07.973Z,100968.84
2023-05-21T23:39:39.763Z,100978.97
2023-05-21T23:42:11.173Z,100958.03
2023-05-21T23:44:42.488Z,100974.03
2023-05-21T23:47:13.895Z,100976.88
2023-05-21T23:49:45.317Z,100971.72
2023-05-21T23:52:18.179Z,100956.03
2023-05-21T23:54:49.912Z,100963.94
2023-05-21T23:57:21.233Z,100964.19
2023-05-21T23:59:52.579Z,100936.22
